Uasc Al Khor — D5IS4 — position and weather

sailwx.info

Track history (hours):
 
Tides and Currents Weather Stations Pressure Air Temp Water Temp Dewpoint Dewpoint Depression Visibility Wind Speed Wind Dir Waves Ship Positions

Uasc Al Khor

Last reported at 2018-May-21 08:46 UTC. Time now 2018-May-21 22:49 UTC.
Position N 46°38' W 007°59'.

Length 300 m; draft 12.3 m.

Type: Ship (hazmat cat A). MMSI: 636016983.

Date/timePositionNaut miles runAvg speedWind from/ knotsBaromVisibWave heightAir tempDewpointWater temp
2018-May-21 08:46N 46°38' W 007°59'517.5
2018-May-21 08:27N 46°42' W 007°56'2 1.1
2018-May-21 06:48N 46°44' W 007°55'2011.2
2018-May-21 04:59N 46°55' W 007°30'919.5
2018-May-21 04:30N 47°02' W 007°21'1019.3
2018-May-21 04:00N 47°10' W 007°13'1019.6
2018-May-21 03:30N 47°19' W 007°06'1019.7
2018-May-21 03:00N 47°27' W 006°59'1420.0
2018-May-21 02:20N 47°39' W 006°48'620.2
2018-May-21 02:00N 47°44' W 006°44'1020.2
2018-May-21 01:30N 47°53' W 006°36'1020.3
2018-May-21 01:00N 48°02' W 006°30'1020.5
2018-May-21 00:30N 48°11' W 006°22'1020.5
2018-May-21 00:01N 48°21' W 006°15'1020.3
2018-May-20 23:30N 48°30' W 006°08'1020.2
2018-May-20 23:01N 48°39' W 006°02'1019.8
2018-May-20 22:30N 48°48' W 005°56'918.9
2018-May-20 22:00N 48°55' W 005°47'918.3
2018-May-20 21:30N 49°00' W 005°35'816.5
2018-May-20 21:00N 49°04' W 005°25'714.8
2018-May-20 20:30N 49°08' W 005°14'713.6
2018-May-20 20:00N 49°11' W 005°05'816.6
2018-May-20 19:31N 49°15' W 004°54'918.3
2018-May-20 19:01N 49°20' W 004°42'918.6
2018-May-20 18:30N 49°25' W 004°30'1019.1
2018-May-20 18:00N 49°28' W 004°17'1219.8
2018-May-20 17:25N 49°34' W 004°01'920.2
2018-May-20 16:59N 49°38' W 003°49'1620.5
2018-May-20 16:13N 49°47' W 003°29'620.1
2018-May-20 15:54N 49°50' W 003°20'1020.2
2018-May-20 15:25N 49°55' W 003°07'819.8
2018-May-20 15:00N 49°58' W 002°56'1019.4
2018-May-20 14:30N 50°01' W 002°41'918.6
2018-May-20 14:00N 50°03' W 002°27'917.8
2018-May-20 13:30N 50°01' W 002°13'917.1
2018-May-20 13:00N 49°58' W 002°01'816.1
2018-May-20 12:30N 49°56' W 001°49'815.8
2018-May-20 12:00N 49°54' W 001°37'815.6
2018-May-20 11:30N 49°52' W 001°25'714.9
2018-May-20 11:01N 49°50' W 001°14'714.9
2018-May-20 10:31N 49°47' W 001°03'816.1
2018-May-20 10:00N 49°44' W 000°52'917.3
2018-May-20 09:30N 49°41' W 000°39'918.0
2018-May-20 09:00N 49°38' W 000°26'917.7
2018-May-20 08:30N 49°33' W 000°14'815.7
2018-May-20 08:00N 49°31' W 000°03'612.5
2018-May-20 07:30N 49°28' E 000°06'2 2.9
2018-May-20 06:58N 49°28' E 000°08'0 0.0
2018-May-20 06:28N 49°28' E 000°08'0 0.0
2018-May-20 05:58N 49°28' E 000°08'0 0.0
2018-May-20 05:28N 49°28' E 000°08'0 0.0
2018-May-20 04:58N 49°28' E 000°08'0 0.0
2018-May-20 04:28N 49°28' E 000°08'0 0.0
2018-May-20 03:58N 49°28' E 000°08'0 0.0
2018-May-20 03:28N 49°28' E 000°08'0 0.0
2018-May-20 02:58N 49°28' E 000°08'0 0.0
2018-May-20 02:28N 49°28' E 000°08'0 0.0
2018-May-20 01:58N 49°28' E 000°08'0 0.0
2018-May-20 01:28N 49°28' E 000°08'0 0.0
2018-May-20 00:58N 49°28' E 000°08'0 0.0
2018-May-20 00:28N 49°28' E 000°08'0 0.0
2018-May-19 23:58N 49°28' E 000°08'0 0.0
2018-May-19 23:28N 49°28' E 000°08'0 0.0
2018-May-19 22:58N 49°28' E 000°08'0 0.0
2018-May-19 22:28N 49°28' E 000°08'0 0.0
2018-May-19 21:58N 49°28' E 000°08'0 0.0
2018-May-19 21:28N 49°28' E 000°08'0 0.0
2018-May-19 20:58N 49°28' E 000°08'0 0.0
2018-May-19 20:28N 49°28' E 000°08'0 0.0
2018-May-19 19:58N 49°28' E 000°08'0 0.0
2018-May-19 19:28N 49°28' E 000°08'0 0.0
2018-May-19 18:58N 49°28' E 000°08'0 0.0
2018-May-19 18:28N 49°28' E 000°08'0 0.0
2018-May-19 17:58N 49°28' E 000°08'0 0.0
2018-May-19 17:28N 49°28' E 000°08'0 0.0
2018-May-19 16:58N 49°28' E 000°08'0 0.0
2018-May-19 16:28N 49°28' E 000°08'0 0.0
2018-May-19 15:58N 49°28' E 000°08'0 0.0
2018-May-19 15:31N 49°28' E 000°08'0 0.8
2018-May-19 15:00N 49°27' E 000°09'4 7.2
2018-May-19 14:30N 49°29' E 000°04'714.1
2018-May-19 14:01N 49°31' W 000°06'510.8
2018-May-19 13:30N 49°36' W 000°11'714.4
2018-May-19 13:00N 49°43' W 000°12'815.5
2018-May-19 12:30N 49°51' W 000°12'815.1
2018-May-19 12:01N 49°58' W 000°10'714.4
2018-May-19 11:30N 50°05' W 000°09'713.8
2018-May-19 11:00N 50°12' W 000°07'713.6
2018-May-19 10:30N 50°19' W 000°05'713.8
2018-May-19 10:00N 50°26' W 000°02'612.4
2018-May-19 09:30N 50°29' E 000°06'713.4
2018-May-19 09:00N 50°31' E 000°16'713.8
2018-May-19 08:30N 50°33' E 000°26'714.3
2018-May-19 08:00N 50°35' E 000°37'714.8
2018-May-19 07:30N 50°40' E 000°46'815.2
2018-May-19 07:00N 50°44' E 000°56'815.4
2018-May-19 06:30N 50°48' E 001°06'1714.7
2018-May-19 05:22N 50°60' E 001°25'614.9
2018-May-19 04:59N 51°04' E 001°32'714.4
2018-May-19 04:30N 51°09' E 001°39'714.3
2018-May-19 04:00N 51°15' E 001°46'714.3
2018-May-19 03:31N 51°21' E 001°52'713.5
2018-May-19 03:01N 51°24' E 002°02'815.5
2018-May-19 02:30N 51°21' E 002°13'714.2
2018-May-19 02:01N 51°22' E 002°24'714.0
2018-May-19 01:30N 51°23' E 002°36'612.9
2018-May-19 01:00N 51°22' E 002°46'816.3
2018-May-19 00:29N 51°23' E 002°59'816.3
2018-May-19 00:00N 51°24' E 003°12'816.2
2018-May-18 23:29N 51°25' E 003°25'613.0
2018-May-18 23:00N 51°26' E 003°35'5 9.8
2018-May-18 22:30N 51°24' E 003°43'714.1
2018-May-18 22:01N 51°21' E 003°52'714.6
2018-May-18 21:30N 51°26' E 004°00'612.5
2018-May-18 21:00N 51°22' E 004°08'5 9.5
2018-May-18 20:31N 51°21' E 004°15'4 7.2
2018-May-18 20:01N 51°17' E 004°16'1 1.0
2018-May-18 19:29N 51°17' E 004°15'0 0.0
2018-May-18 18:56N 51°17' E 004°15'0 0.0
2018-May-18 18:29N 51°17' E 004°15'0 0.0
2018-May-18 17:59N 51°17' E 004°15'0 0.0
2018-May-18 17:29N 51°17' E 004°15'0 0.0
2018-May-18 16:59N 51°17' E 004°15'0 0.0
2018-May-18 16:29N 51°17' E 004°15'0 0.0
2018-May-18 15:59N 51°17' E 004°15'0 0.0
2018-May-18 15:29N 51°17' E 004°15'0 0.0
2018-May-18 14:59N 51°17' E 004°15'0 0.0
2018-May-18 14:26N 51°17' E 004°15'0 0.0
2018-May-18 13:59N 51°17' E 004°15'0 0.0
2018-May-18 13:29N 51°17' E 004°15'0 0.0
2018-May-18 12:59N 51°17' E 004°15'0 0.0
2018-May-18 12:29N 51°17' E 004°15'0 0.0
2018-May-18 11:56N 51°17' E 004°15'0 0.0
2018-May-18 11:26N 51°17' E 004°15'0 0.0
2018-May-18 10:59N 51°17' E 004°15'0 0.0
2018-May-18 10:29N 51°17' E 004°15'0 0.0
2018-May-18 09:59N 51°17' E 004°15'0 0.0
2018-May-18 09:29N 51°17' E 004°15'0 0.0
2018-May-18 08:59N 51°17' E 004°15'0 0.0
2018-May-18 08:29N 51°17' E 004°15'0 0.0
2018-May-18 07:56N 51°17' E 004°15'0 0.0
2018-May-18 07:29N 51°17' E 004°15'0 0.0
2018-May-18 06:56N 51°17' E 004°15'0 0.0
2018-May-18 06:29N 51°17' E 004°15'0 0.0
2018-May-18 05:59N 51°17' E 004°15'0 0.0
2018-May-18 05:29N 51°17' E 004°15'0 0.0
2018-May-18 04:59N 51°17' E 004°15'0 0.0
2018-May-18 04:29N 51°17' E 004°15'0 0.0
2018-May-18 03:59N 51°17' E 004°15'0 0.0
2018-May-18 03:29N 51°17' E 004°15'0 0.0
2018-May-18 02:59N 51°17' E 004°15'0 0.0
2018-May-18 02:29N 51°17' E 004°15'0 0.0
2018-May-18 01:56N 51°17' E 004°15'0 0.0
2018-May-18 01:29N 51°17' E 004°15'0 0.0
2018-May-18 00:59N 51°17' E 004°15'0 0.0
2018-May-18 00:29N 51°17' E 004°15'0 0.0
2018-May-17 23:59N 51°17' E 004°15'0 0.0
2018-May-17 23:29N 51°17' E 004°15'0 0.0
2018-May-17 22:59N 51°17' E 004°15'0 0.0
2018-May-17 22:29N 51°17' E 004°15'0 0.0
2018-May-17 21:59N 51°17' E 004°15'0 0.0
2018-May-17 21:29N 51°17' E 004°15'0 0.0
2018-May-17 20:59N 51°17' E 004°15'0 0.0
2018-May-17 20:29N 51°17' E 004°15'0 0.0
2018-May-17 19:58N 51°17' E 004°15'0 0.0
2018-May-17 19:29N 51°17' E 004°15'0 0.0
2018-May-17 18:59N 51°17' E 004°15'0 0.0
2018-May-17 18:29N 51°17' E 004°15'0 0.0
2018-May-17 17:59N 51°17' E 004°15'0 0.0
2018-May-17 17:29N 51°17' E 004°15'0 0.0
2018-May-17 16:58N 51°17' E 004°15'0 0.0
2018-May-17 16:28N 51°17' E 004°15'0 0.0
2018-May-17 15:59N 51°17' E 004°15'0 0.0
2018-May-17 15:28N 51°17' E 004°15'0 0.0
2018-May-17 14:58N 51°17' E 004°15'0 0.0
2018-May-17 14:29N 51°17' E 004°15'0 0.0
2018-May-17 13:58N 51°17' E 004°15'0 0.9
2018-May-17 13:31N 51°17' E 004°15'1 2.3
2018-May-17 13:01N 51°18' E 004°16'3 6.2
2018-May-17 12:30N 51°21' E 004°15'4 7.6
2018-May-17 12:00N 51°23' E 004°09'611.4
2018-May-17 11:30N 51°26' E 004°01'612.1
2018-May-17 11:01N 51°22' E 003°54'611.7
2018-May-17 10:31N 51°22' E 003°45'612.2
2018-May-17 10:00N 51°26' E 003°37'5 9.5
2018-May-17 09:30N 51°25' E 003°30'815.4
2018-May-17 09:00N 51°24' E 003°18'714.6
2018-May-17 08:31N 51°24' E 003°06'510.4
2018-May-17 08:00N 51°28' E 003°01'1019.1
2018-May-17 07:30N 51°36' E 003°10'816.8
2018-May-17 06:59N 51°44' E 003°11'2 4.7
2018-May-17 06:30N 51°47' E 003°10'4 8.0
2018-May-17 06:00N 51°50' E 003°06'5 9.1
2018-May-17 05:30N 51°53' E 003°02'4 8.9
2018-May-17 05:00N 51°58' E 003°02'611.4
2018-May-17 04:29N 52°03' E 002°59'713.6
2018-May-17 03:57N 52°11' E 002°60'714.2
2018-May-17 03:29N 52°16' E 003°06'714.2
2018-May-17 03:00N 52°22' E 003°13'714.1
2018-May-17 02:30N 52°27' E 003°19'714.3
2018-May-17 02:00N 52°33' E 003°26'714.1
2018-May-17 01:30N 52°39' E 003°33'713.7
2018-May-17 01:00N 52°44' E 003°40'714.0
2018-May-17 00:28N 52°50' E 003°48'714.1
2018-May-16 23:58N 52°55' E 003°56'714.1
2018-May-16 23:27N 53°00' E 004°04'614.1
2018-May-16 23:00N 53°04' E 004°13'714.6
2018-May-16 22:30N 53°09' E 004°22'715.0
2018-May-16 22:00N 53°15' E 004°28'815.9
2018-May-16 21:30N 53°23' E 004°33'815.6
2018-May-16 20:59N 53°30' E 004°41'715.2
2018-May-16 20:30N 53°33' E 004°52'714.6
2018-May-16 20:00N 53°35' E 005°04'714.2
2018-May-16 19:30N 53°37' E 005°15'714.1
2018-May-16 19:00N 53°40' E 005°26'714.2
2018-May-16 18:30N 53°42' E 005°38'714.2
2018-May-16 18:00N 53°44' E 005°49'814.5
2018-May-16 17:28N 53°47' E 006°01'714.9
2018-May-16 16:58N 53°49' E 006°13'915.2
2018-May-16 16:21N 53°51' E 006°29'1015.6
2018-May-16 15:42N 53°53' E 006°45'315.6
2018-May-16 15:30N 53°54' E 006°51'815.5
2018-May-16 15:00N 53°56' E 007°03'815.8
2018-May-16 14:30N 53°58' E 007°16'816.3
2018-May-16 14:00N 54°00' E 007°30'816.3
2018-May-16 13:30N 54°02' E 007°43'815.9
2018-May-16 13:00N 54°02' E 007°57'815.7
2018-May-16 12:30N 54°01' E 008°10'714.5
2018-May-16 12:00N 53°59' E 008°22'815.5
2018-May-16 11:30N 53°58' E 008°35'713.6
2018-May-16 11:00N 53°53' E 008°43'611.3
2018-May-16 10:31N 53°50' E 008°52'713.4
2018-May-16 10:00N 53°52' E 009°03'510.6
2018-May-16 09:30N 53°53' E 009°11'714.1
2018-May-16 09:00N 53°49' E 009°22'715.0
2018-May-16 08:30N 53°43' E 009°29'713.0
2018-May-16 08:00N 53°37' E 009°33'612.6
2018-May-16 07:30N 53°34' E 009°42'5 9.2
2018-May-16 07:01N 53°33' E 009°50'4 7.9
2018-May-16 06:30N 53°32' E 009°56'2 2.8
2018-May-16 05:58N 53°30' E 009°56'0 0.0
2018-May-16 05:28N 53°30' E 009°56'0 0.0
2018-May-16 04:58N 53°30' E 009°56'0 0.0
2018-May-16 04:28N 53°30' E 009°56'0 0.0
2018-May-16 03:58N 53°30' E 009°56'0 0.0
2018-May-16 03:28N 53°30' E 009°56'0 0.0
2018-May-16 02:58N 53°30' E 009°56'0 0.0
2018-May-16 02:28N 53°30' E 009°56'0 0.0
2018-May-16 01:58N 53°30' E 009°56'0 0.0
2018-May-16 01:28N 53°30' E 009°56'0 0.0
2018-May-16 00:58N 53°30' E 009°56'0 0.0
2018-May-16 00:28N 53°30' E 009°56'0 0.0
2018-May-15 23:58N 53°30' E 009°56'0 0.0
2018-May-15 23:28N 53°30' E 009°56'0 0.0
2018-May-15 22:58N 53°30' E 009°56'0 0.0
2018-May-15 22:28N 53°30' E 009°56'0 0.0
2018-May-15 21:58N 53°30' E 009°56'0 0.0
2018-May-15 21:28N 53°30' E 009°56'0 0.0
2018-May-15 20:58N 53°30' E 009°56'0 0.0
2018-May-15 20:28N 53°30' E 009°56'0 0.0
2018-May-15 19:58N 53°30' E 009°56'0 0.0
2018-May-15 19:28N 53°30' E 009°56'0 0.0
2018-May-15 18:58N 53°30' E 009°56'0 0.0
2018-May-15 18:28N 53°30' E 009°56'0 0.0
2018-May-15 17:58N 53°30' E 009°56'0 0.0
2018-May-15 17:28N 53°30' E 009°56'0 0.0
2018-May-15 16:58N 53°30' E 009°56'0 0.0
2018-May-15 16:28N 53°30' E 009°56'0 0.0
2018-May-15 15:58N 53°30' E 009°56'0 0.0
2018-May-15 15:28N 53°30' E 009°56'0 0.0
2018-May-15 14:58N 53°30' E 009°56'0 0.0
2018-May-15 14:28N 53°30' E 009°56'0 0.0
2018-May-15 13:58N 53°30' E 009°56'0 0.0
2018-May-15 13:28N 53°30' E 009°56'0 0.0
2018-May-15 13:00N 53°30' E 009°56'2 4.1
2018-May-15 12:31N 53°32' E 009°56'5 9.3
2018-May-15 12:01N 53°33' E 009°48'510.9
2018-May-15 11:30N 53°34' E 009°39'612.3
2018-May-15 11:00N 53°38' E 009°31'613.0
2018-May-15 10:30N 53°44' E 009°26'612.4
2018-May-15 10:00N 53°50' E 009°21'612.5
2018-May-15 09:30N 53°53' E 009°12'510.3
2018-May-15 09:00N 53°52' E 009°04'714.4
2018-May-15 08:30N 53°50' E 008°52'611.1
2018-May-15 08:00N 53°53' E 008°43'612.7
2018-May-15 07:30N 53°57' E 008°36'917.5
2018-May-15 07:01N 53°59' E 008°22'919.0
2018-May-15 06:30N 53°59' E 008°06'815.2
2018-May-15 06:00N 53°57' E 007°53'612.7
2018-May-15 05:30N 53°56' E 007°42'713.5
2018-May-15 05:00N 53°55' E 007°31'815.2
2018-May-15 04:28N 53°53' E 007°18'716.0
2018-May-15 04:01N 53°51' E 007°06'815.8
2018-May-15 03:30N 53°49' E 006°52'815.9
2018-May-15 03:00N 53°47' E 006°39'815.8
2018-May-15 02:29N 53°46' E 006°26'815.8
2018-May-15 02:00N 53°44' E 006°13'815.7
2018-May-15 01:30N 53°41' E 006°01'815.9
2018-May-15 01:00N 53°38' E 005°48'816.0
2018-May-15 00:31N 53°36' E 005°36'916.1
2018-May-14 23:57N 53°33' E 005°22'715.8
2018-May-14 23:31N 53°30' E 005°10'815.7
2018-May-14 23:01N 53°28' E 004°58'815.9
2018-May-14 22:31N 53°25' E 004°45'815.9
2018-May-14 22:01N 53°19' E 004°37'816.6
2018-May-14 21:31N 53°11' E 004°31'816.6
2018-May-14 21:00N 53°04' E 004°25'817.0
2018-May-14 20:31N 52°56' E 004°19'816.6
2018-May-14 20:01N 52°49' E 004°11'816.6
2018-May-14 19:30N 52°44' E 004°01'816.6
2018-May-14 19:00N 52°39' E 003°50'816.7
2018-May-14 18:30N 52°33' E 003°39'916.8
2018-May-14 17:58N 52°28' E 003°27'816.9
2018-May-14 17:29N 52°23' E 003°16'816.4
2018-May-14 17:00N 52°19' E 003°06'816.5
2018-May-14 16:30N 52°14' E 002°55'916.7
2018-May-14 15:56N 52°08' E 002°42'817.1
2018-May-14 15:26N 52°03' E 002°31'817.5
2018-May-14 15:00N 51°59' E 002°21'1017.8
2018-May-14 14:27N 51°53' E 002°08'818.0
2018-May-14 14:00N 51°50' E 001°57'816.8
2018-May-14 13:31N 51°50' E 001°43'510.8
2018-May-14 13:00N 51°50' E 001°34'816.7
2018-May-14 12:30N 51°43' E 001°29'918.2
2018-May-14 12:00N 51°36' E 001°18'1017.2
2018-May-14 11:26N 51°31' E 001°05'715.2
2018-May-14 11:00N 51°29' E 000°55'713.1
2018-May-14 10:29N 51°30' E 000°44'9 0.8
2018-May-13 22:38N 51°30' E 000°29'10 0.6
2018-May-13 07:42N 51°30' E 000°45'416.4
2018-May-13 07:28N 51°29' E 000°51'715.3
2018-May-13 07:00N 51°31' E 001°02'816.2
2018-May-13 06:30N 51°34' E 001°14'816.5
2018-May-13 06:00N 51°39' E 001°24'816.5
2018-May-13 05:30N 51°46' E 001°32'713.7
2018-May-13 05:00N 51°52' E 001°38'2 4.7
2018-May-13 04:30N 51°53' E 001°41'0 0.2
2018-May-13 03:58N 51°53' E 001°41'0 0.1
2018-May-13 03:28N 51°53' E 001°41'0 0.1
2018-May-13 02:58N 51°53' E 001°41'0 0.0
2018-May-13 02:28N 51°53' E 001°41'0 0.0
2018-May-13 01:58N 51°53' E 001°41'0 0.0
2018-May-13 01:28N 51°53' E 001°41'0 0.0
2018-May-13 00:58N 51°53' E 001°41'0 0.0
2018-May-13 00:28N 51°53' E 001°41'0 0.0
2018-May-12 23:58N 51°53' E 001°41'0 0.2
2018-May-12 23:28N 51°53' E 001°41'0 0.2
2018-May-12 22:58N 51°53' E 001°41'0 0.1
2018-May-12 22:28N 51°53' E 001°41'0 0.2
2018-May-12 21:58N 51°53' E 001°41'0 0.0
2018-May-12 21:28N 51°53' E 001°41'0 0.2
2018-May-12 20:58N 51°53' E 001°41'0 0.0
2018-May-12 20:28N 51°53' E 001°41'0 0.1
2018-May-12 19:58N 51°53' E 001°41'0 0.0
2018-May-12 19:28N 51°53' E 001°41'0 0.0
2018-May-12 18:58N 51°53' E 001°41'0 0.0
2018-May-12 18:28N 51°53' E 001°41'0 0.1
2018-May-12 17:58N 51°53' E 001°41'0 0.9
2018-May-12 17:30N 51°53' E 001°42'510.6
2018-May-12 17:00N 51°50' E 001°49'611.3
2018-May-12 16:30N 51°51' E 001°58'611.9
2018-May-12 16:00N 51°54' E 002°07'611.4
2018-May-12 15:30N 51°56' E 002°15'611.3
2018-May-12 14:56N 51°58' E 002°25'510.9
2018-May-12 14:30N 51°59' E 002°32'510.7
2018-May-12 14:00N 52°01' E 002°40'910.0
2018-May-12 13:04N 52°02' E 002°56'110.7
2018-May-12 13:00N 52°02' E 002°57'510.5
2018-May-12 12:30N 52°02' E 003°05'510.3
2018-May-12 12:00N 52°03' E 003°14'510.1
2018-May-12 11:30N 52°03' E 003°22'510.3
2018-May-12 10:59N 52°03' E 003°30'510.9
2018-May-12 10:30N 52°03' E 003°39'611.1
2018-May-12 10:00N 52°03' E 003°48'5 9.9
2018-May-12 09:30N 52°01' E 003°55'714.1
2018-May-12 09:01N 51°58' E 004°05'1 1.8
2018-May-12 08:29N 51°58' E 004°04'0 0.0
2018-May-12 07:59N 51°58' E 004°04'0 0.0
2018-May-12 07:29N 51°58' E 004°04'0 0.0
2018-May-12 06:59N 51°58' E 004°04'0 0.0
2018-May-12 06:29N 51°58' E 004°04'0 0.0
2018-May-12 05:59N 51°58' E 004°04'0 0.0
2018-May-12 05:29N 51°58' E 004°04'0 0.0
2018-May-12 04:59N 51°58' E 004°04'0 0.0
2018-May-12 04:29N 51°58' E 004°04'0 0.0
2018-May-12 03:59N 51°58' E 004°04'0 0.0
2018-May-12 03:29N 51°58' E 004°04'0 0.0
2018-May-12 02:59N 51°58' E 004°04'0 0.0
2018-May-12 02:29N 51°58' E 004°04'0 0.0
2018-May-12 01:59N 51°58' E 004°04'0 0.0
2018-May-12 01:29N 51°58' E 004°04'0 0.0
2018-May-12 00:59N 51°58' E 004°04'0 0.0
2018-May-12 00:29N 51°58' E 004°04'0 0.0
2018-May-11 23:59N 51°58' E 004°04'0 0.0
2018-May-11 23:29N 51°58' E 004°04'0 0.0
2018-May-11 22:59N 51°58' E 004°04'0 0.0
2018-May-11 22:29N 51°58' E 004°04'0 0.0
2018-May-11 21:59N 51°58' E 004°04'0 0.0
2018-May-11 21:29N 51°58' E 004°04'0 0.0
2018-May-11 20:59N 51°58' E 004°04'0 0.0
2018-May-11 20:28N 51°58' E 004°04'0 0.0
2018-May-11 19:59N 51°58' E 004°04'0 0.0
2018-May-11 19:29N 51°58' E 004°04'0 0.0
2018-May-11 18:59N 51°58' E 004°04'0 0.0
2018-May-11 18:28N 51°58' E 004°04'0 0.0
2018-May-11 17:59N 51°58' E 004°04'0 0.0
2018-May-11 17:28N 51°58' E 004°04'0 0.0
2018-May-11 16:59N 51°58' E 004°04'0 0.0
2018-May-11 16:28N 51°58' E 004°04'0 0.0
2018-May-11 15:58N 51°58' E 004°04'0 0.0
2018-May-11 15:29N 51°58' E 004°04'0 0.0
2018-May-11 14:58N 51°58' E 004°04'0 0.0
2018-May-11 14:28N 51°58' E 004°04'0 0.0
2018-May-11 13:58N 51°58' E 004°04'0 0.0
2018-May-11 13:28N 51°58' E 004°04'0 0.0
2018-May-11 12:58N 51°58' E 004°04'0 0.0
2018-May-11 12:28N 51°58' E 004°04'0 0.0
2018-May-11 11:58N 51°58' E 004°04'0 0.0
2018-May-11 11:28N 51°58' E 004°04'0 0.0
2018-May-11 10:58N 51°58' E 004°04'0 0.0
2018-May-11 10:29N 51°58' E 004°04'0 0.0
2018-May-11 09:58N 51°58' E 004°04'0 0.0
2018-May-11 09:29N 51°58' E 004°04'0 0.0
2018-May-11 08:58N 51°58' E 004°04'  
Track history (hours):
 
Tides and Currents Weather Stations Pressure Air Temp Water Temp Dewpoint Dewpoint Depression Visibility Wind Speed Wind Dir Waves Ship Positions

Uasc Al Khor

Last reported at 2018-May-21 08:46 UTC. Time now 2018-May-21 22:49 UTC.
Position N 46°38' W 007°59'.

Length 300 m; draft 12.3 m.

Type: Ship (hazmat cat A). MMSI: 636016983.

Date/timePositionNaut miles runAvg speedWind from/ knotsBaromVisibWave heightAir tempDewpointWater temp
2018-May-21 08:46N 46°38' W 007°59'517.5
2018-May-21 08:27N 46°42' W 007°56'2 1.1
2018-May-21 06:48N 46°44' W 007°55'2011.2
2018-May-21 04:59N 46°55' W 007°30'919.5
2018-May-21 04:30N 47°02' W 007°21'1019.3
2018-May-21 04:00N 47°10' W 007°13'1019.6
2018-May-21 03:30N 47°19' W 007°06'1019.7
2018-May-21 03:00N 47°27' W 006°59'1420.0
2018-May-21 02:20N 47°39' W 006°48'620.2
2018-May-21 02:00N 47°44' W 006°44'1020.2
2018-May-21 01:30N 47°53' W 006°36'1020.3
2018-May-21 01:00N 48°02' W 006°30'1020.5
2018-May-21 00:30N 48°11' W 006°22'1020.5
2018-May-21 00:01N 48°21' W 006°15'1020.3
2018-May-20 23:30N 48°30' W 006°08'1020.2
2018-May-20 23:01N 48°39' W 006°02'1019.8
2018-May-20 22:30N 48°48' W 005°56'918.9
2018-May-20 22:00N 48°55' W 005°47'918.3
2018-May-20 21:30N 49°00' W 005°35'816.5
2018-May-20 21:00N 49°04' W 005°25'714.8
2018-May-20 20:30N 49°08' W 005°14'713.6
2018-May-20 20:00N 49°11' W 005°05'816.6
2018-May-20 19:31N 49°15' W 004°54'918.3
2018-May-20 19:01N 49°20' W 004°42'918.6
2018-May-20 18:30N 49°25' W 004°30'1019.1
2018-May-20 18:00N 49°28' W 004°17'1219.8
2018-May-20 17:25N 49°34' W 004°01'920.2
2018-May-20 16:59N 49°38' W 003°49'1620.5
2018-May-20 16:13N 49°47' W 003°29'620.1
2018-May-20 15:54N 49°50' W 003°20'1020.2
2018-May-20 15:25N 49°55' W 003°07'819.8
2018-May-20 15:00N 49°58' W 002°56'1019.4
2018-May-20 14:30N 50°01' W 002°41'918.6
2018-May-20 14:00N 50°03' W 002°27'917.8
2018-May-20 13:30N 50°01' W 002°13'917.1
2018-May-20 13:00N 49°58' W 002°01'816.1
2018-May-20 12:30N 49°56' W 001°49'815.8
2018-May-20 12:00N 49°54' W 001°37'815.6
2018-May-20 11:30N 49°52' W 001°25'714.9
2018-May-20 11:01N 49°50' W 001°14'714.9
2018-May-20 10:31N 49°47' W 001°03'816.1
2018-May-20 10:00N 49°44' W 000°52'917.3
2018-May-20 09:30N 49°41' W 000°39'918.0
2018-May-20 09:00N 49°38' W 000°26'917.7
2018-May-20 08:30N 49°33' W 000°14'815.7
2018-May-20 08:00N 49°31' W 000°03'612.5
2018-May-20 07:30N 49°28' E 000°06'2 2.9
2018-May-20 06:58N 49°28' E 000°08'0 0.0
2018-May-20 06:28N 49°28' E 000°08'0 0.0
2018-May-20 05:58N 49°28' E 000°08'0 0.0
2018-May-20 05:28N 49°28' E 000°08'0 0.0
2018-May-20 04:58N 49°28' E 000°08'0 0.0
2018-May-20 04:28N 49°28' E 000°08'0 0.0
2018-May-20 03:58N 49°28' E 000°08'0 0.0
2018-May-20 03:28N 49°28' E 000°08'0 0.0
2018-May-20 02:58N 49°28' E 000°08'0 0.0
2018-May-20 02:28N 49°28' E 000°08'0 0.0
2018-May-20 01:58N 49°28' E 000°08'0 0.0
2018-May-20 01:28N 49°28' E 000°08'0 0.0
2018-May-20 00:58N 49°28' E 000°08'0 0.0
2018-May-20 00:28N 49°28' E 000°08'0 0.0
2018-May-19 23:58N 49°28' E 000°08'0 0.0
2018-May-19 23:28N 49°28' E 000°08'0 0.0
2018-May-19 22:58N 49°28' E 000°08'0 0.0
2018-May-19 22:28N 49°28' E 000°08'0 0.0
2018-May-19 21:58N 49°28' E 000°08'0 0.0
2018-May-19 21:28N 49°28' E 000°08'0 0.0
2018-May-19 20:58N 49°28' E 000°08'0 0.0
2018-May-19 20:28N 49°28' E 000°08'0 0.0
2018-May-19 19:58N 49°28' E 000°08'0 0.0
2018-May-19 19:28N 49°28' E 000°08'0 0.0
2018-May-19 18:58N 49°28' E 000°08'0 0.0
2018-May-19 18:28N 49°28' E 000°08'0 0.0
2018-May-19 17:58N 49°28' E 000°08'0 0.0
2018-May-19 17:28N 49°28' E 000°08'0 0.0
2018-May-19 16:58N 49°28' E 000°08'0 0.0
2018-May-19 16:28N 49°28' E 000°08'0 0.0
2018-May-19 15:58N 49°28' E 000°08'0 0.0
2018-May-19 15:31N 49°28' E 000°08'0 0.8
2018-May-19 15:00N 49°27' E 000°09'4 7.2
2018-May-19 14:30N 49°29' E 000°04'714.1
2018-May-19 14:01N 49°31' W 000°06'510.8
2018-May-19 13:30N 49°36' W 000°11'714.4
2018-May-19 13:00N 49°43' W 000°12'815.5
2018-May-19 12:30N 49°51' W 000°12'815.1
2018-May-19 12:01N 49°58' W 000°10'714.4
2018-May-19 11:30N 50°05' W 000°09'713.8
2018-May-19 11:00N 50°12' W 000°07'713.6
2018-May-19 10:30N 50°19' W 000°05'713.8
2018-May-19 10:00N 50°26' W 000°02'612.4
2018-May-19 09:30N 50°29' E 000°06'713.4
2018-May-19 09:00N 50°31' E 000°16'713.8
2018-May-19 08:30N 50°33' E 000°26'714.3
2018-May-19 08:00N 50°35' E 000°37'714.8
2018-May-19 07:30N 50°40' E 000°46'815.2
2018-May-19 07:00N 50°44' E 000°56'815.4
2018-May-19 06:30N 50°48' E 001°06'1714.7
2018-May-19 05:22N 50°60' E 001°25'614.9
2018-May-19 04:59N 51°04' E 001°32'714.4
2018-May-19 04:30N 51°09' E 001°39'714.3
2018-May-19 04:00N 51°15' E 001°46'714.3
2018-May-19 03:31N 51°21' E 001°52'713.5
2018-May-19 03:01N 51°24' E 002°02'815.5
2018-May-19 02:30N 51°21' E 002°13'714.2
2018-May-19 02:01N 51°22' E 002°24'714.0
2018-May-19 01:30N 51°23' E 002°36'612.9
2018-May-19 01:00N 51°22' E 002°46'816.3
2018-May-19 00:29N 51°23' E 002°59'816.3
2018-May-19 00:00N 51°24' E 003°12'816.2
2018-May-18 23:29N 51°25' E 003°25'613.0
2018-May-18 23:00N 51°26' E 003°35'5 9.8
2018-May-18 22:30N 51°24' E 003°43'714.1
2018-May-18 22:01N 51°21' E 003°52'714.6
2018-May-18 21:30N 51°26' E 004°00'612.5
2018-May-18 21:00N 51°22' E 004°08'5 9.5
2018-May-18 20:31N 51°21' E 004°15'4 7.2
2018-May-18 20:01N 51°17' E 004°16'1 1.0
2018-May-18 19:29N 51°17' E 004°15'0 0.0
2018-May-18 18:56N 51°17' E 004°15'0 0.0
2018-May-18 18:29N 51°17' E 004°15'0 0.0
2018-May-18 17:59N 51°17' E 004°15'0 0.0
2018-May-18 17:29N 51°17' E 004°15'0 0.0
2018-May-18 16:59N 51°17' E 004°15'0 0.0
2018-May-18 16:29N 51°17' E 004°15'0 0.0
2018-May-18 15:59N 51°17' E 004°15'0 0.0
2018-May-18 15:29N 51°17' E 004°15'0 0.0
2018-May-18 14:59N 51°17' E 004°15'0 0.0
2018-May-18 14:26N 51°17' E 004°15'0 0.0
2018-May-18 13:59N 51°17' E 004°15'0 0.0
2018-May-18 13:29N 51°17' E 004°15'0 0.0
2018-May-18 12:59N 51°17' E 004°15'0 0.0
2018-May-18 12:29N 51°17' E 004°15'0 0.0
2018-May-18 11:56N 51°17' E 004°15'0 0.0
2018-May-18 11:26N 51°17' E 004°15'0 0.0
2018-May-18 10:59N 51°17' E 004°15'0 0.0
2018-May-18 10:29N 51°17' E 004°15'0 0.0
2018-May-18 09:59N 51°17' E 004°15'0 0.0
2018-May-18 09:29N 51°17' E 004°15'0 0.0
2018-May-18 08:59N 51°17' E 004°15'0 0.0
2018-May-18 08:29N 51°17' E 004°15'0 0.0
2018-May-18 07:56N 51°17' E 004°15'0 0.0
2018-May-18 07:29N 51°17' E 004°15'0 0.0
2018-May-18 06:56N 51°17' E 004°15'0 0.0
2018-May-18 06:29N 51°17' E 004°15'0 0.0
2018-May-18 05:59N 51°17' E 004°15'0 0.0
2018-May-18 05:29N 51°17' E 004°15'0 0.0
2018-May-18 04:59N 51°17' E 004°15'0 0.0
2018-May-18 04:29N 51°17' E 004°15'0 0.0
2018-May-18 03:59N 51°17' E 004°15'0 0.0
2018-May-18 03:29N 51°17' E 004°15'0 0.0
2018-May-18 02:59N 51°17' E 004°15'0 0.0
2018-May-18 02:29N 51°17' E 004°15'0 0.0
2018-May-18 01:56N 51°17' E 004°15'0 0.0
2018-May-18 01:29N 51°17' E 004°15'0 0.0
2018-May-18 00:59N 51°17' E 004°15'0 0.0
2018-May-18 00:29N 51°17' E 004°15'0 0.0
2018-May-17 23:59N 51°17' E 004°15'0 0.0
2018-May-17 23:29N 51°17' E 004°15'0 0.0
2018-May-17 22:59N 51°17' E 004°15'0 0.0
2018-May-17 22:29N 51°17' E 004°15'0 0.0
2018-May-17 21:59N 51°17' E 004°15'0 0.0
2018-May-17 21:29N 51°17' E 004°15'0 0.0
2018-May-17 20:59N 51°17' E 004°15'0 0.0
2018-May-17 20:29N 51°17' E 004°15'0 0.0
2018-May-17 19:58N 51°17' E 004°15'0 0.0
2018-May-17 19:29N 51°17' E 004°15'0 0.0
2018-May-17 18:59N 51°17' E 004°15'0 0.0
2018-May-17 18:29N 51°17' E 004°15'0 0.0
2018-May-17 17:59N 51°17' E 004°15'0 0.0
2018-May-17 17:29N 51°17' E 004°15'0 0.0
2018-May-17 16:58N 51°17' E 004°15'0 0.0
2018-May-17 16:28N 51°17' E 004°15'0 0.0
2018-May-17 15:59N 51°17' E 004°15'0 0.0
2018-May-17 15:28N 51°17' E 004°15'0 0.0
2018-May-17 14:58N 51°17' E 004°15'0 0.0
2018-May-17 14:29N 51°17' E 004°15'0 0.0
2018-May-17 13:58N 51°17' E 004°15'0 0.9
2018-May-17 13:31N 51°17' E 004°15'1 2.3
2018-May-17 13:01N 51°18' E 004°16'3 6.2
2018-May-17 12:30N 51°21' E 004°15'4 7.6
2018-May-17 12:00N 51°23' E 004°09'611.4
2018-May-17 11:30N 51°26' E 004°01'612.1
2018-May-17 11:01N 51°22' E 003°54'611.7
2018-May-17 10:31N 51°22' E 003°45'612.2
2018-May-17 10:00N 51°26' E 003°37'5 9.5
2018-May-17 09:30N 51°25' E 003°30'815.4
2018-May-17 09:00N 51°24' E 003°18'714.6
2018-May-17 08:31N 51°24' E 003°06'510.4
2018-May-17 08:00N 51°28' E 003°01'1019.1
2018-May-17 07:30N 51°36' E 003°10'816.8
2018-May-17 06:59N 51°44' E 003°11'2 4.7
2018-May-17 06:30N 51°47' E 003°10'4 8.0
2018-May-17 06:00N 51°50' E 003°06'5 9.1
2018-May-17 05:30N 51°53' E 003°02'4 8.9
2018-May-17 05:00N 51°58' E 003°02'611.4
2018-May-17 04:29N 52°03' E 002°59'713.6
2018-May-17 03:57N 52°11' E 002°60'714.2
2018-May-17 03:29N 52°16' E 003°06'714.2
2018-May-17 03:00N 52°22' E 003°13'714.1
2018-May-17 02:30N 52°27' E 003°19'714.3
2018-May-17 02:00N 52°33' E 003°26'714.1
2018-May-17 01:30N 52°39' E 003°33'713.7
2018-May-17 01:00N 52°44' E 003°40'714.0
2018-May-17 00:28N 52°50' E 003°48'714.1
2018-May-16 23:58N 52°55' E 003°56'714.1
2018-May-16 23:27N 53°00' E 004°04'614.1
2018-May-16 23:00N 53°04' E 004°13'714.6
2018-May-16 22:30N 53°09' E 004°22'715.0
2018-May-16 22:00N 53°15' E 004°28'815.9
2018-May-16 21:30N 53°23' E 004°33'815.6
2018-May-16 20:59N 53°30' E 004°41'715.2
2018-May-16 20:30N 53°33' E 004°52'714.6
2018-May-16 20:00N 53°35' E 005°04'714.2
2018-May-16 19:30N 53°37' E 005°15'714.1
2018-May-16 19:00N 53°40' E 005°26'714.2
2018-May-16 18:30N 53°42' E 005°38'714.2
2018-May-16 18:00N 53°44' E 005°49'814.5
2018-May-16 17:28N 53°47' E 006°01'714.9
2018-May-16 16:58N 53°49' E 006°13'915.2
2018-May-16 16:21N 53°51' E 006°29'1015.6
2018-May-16 15:42N 53°53' E 006°45'315.6
2018-May-16 15:30N 53°54' E 006°51'815.5
2018-May-16 15:00N 53°56' E 007°03'815.8
2018-May-16 14:30N 53°58' E 007°16'816.3
2018-May-16 14:00N 54°00' E 007°30'816.3
2018-May-16 13:30N 54°02' E 007°43'815.9
2018-May-16 13:00N 54°02' E 007°57'815.7
2018-May-16 12:30N 54°01' E 008°10'714.5
2018-May-16 12:00N 53°59' E 008°22'815.5
2018-May-16 11:30N 53°58' E 008°35'713.6
2018-May-16 11:00N 53°53' E 008°43'611.3
2018-May-16 10:31N 53°50' E 008°52'713.4
2018-May-16 10:00N 53°52' E 009°03'510.6
2018-May-16 09:30N 53°53' E 009°11'714.1
2018-May-16 09:00N 53°49' E 009°22'715.0
2018-May-16 08:30N 53°43' E 009°29'713.0
2018-May-16 08:00N 53°37' E 009°33'612.6
2018-May-16 07:30N 53°34' E 009°42'5 9.2
2018-May-16 07:01N 53°33' E 009°50'4 7.9
2018-May-16 06:30N 53°32' E 009°56'2 2.8
2018-May-16 05:58N 53°30' E 009°56'0 0.0
2018-May-16 05:28N 53°30' E 009°56'0 0.0
2018-May-16 04:58N 53°30' E 009°56'0 0.0
2018-May-16 04:28N 53°30' E 009°56'0 0.0
2018-May-16 03:58N 53°30' E 009°56'0 0.0
2018-May-16 03:28N 53°30' E 009°56'0 0.0
2018-May-16 02:58N 53°30' E 009°56'0 0.0
2018-May-16 02:28N 53°30' E 009°56'0 0.0
2018-May-16 01:58N 53°30' E 009°56'0 0.0
2018-May-16 01:28N 53°30' E 009°56'0 0.0
2018-May-16 00:58N 53°30' E 009°56'0 0.0
2018-May-16 00:28N 53°30' E 009°56'0 0.0
2018-May-15 23:58N 53°30' E 009°56'0 0.0
2018-May-15 23:28N 53°30' E 009°56'0 0.0
2018-May-15 22:58N 53°30' E 009°56'0 0.0
2018-May-15 22:28N 53°30' E 009°56'0 0.0
2018-May-15 21:58N 53°30' E 009°56'0 0.0
2018-May-15 21:28N 53°30' E 009°56'0 0.0
2018-May-15 20:58N 53°30' E 009°56'0 0.0
2018-May-15 20:28N 53°30' E 009°56'0 0.0
2018-May-15 19:58N 53°30' E 009°56'0 0.0
2018-May-15 19:28N 53°30' E 009°56'0 0.0
2018-May-15 18:58N 53°30' E 009°56'0 0.0
2018-May-15 18:28N 53°30' E 009°56'0 0.0
2018-May-15 17:58N 53°30' E 009°56'0 0.0
2018-May-15 17:28N 53°30' E 009°56'0 0.0
2018-May-15 16:58N 53°30' E 009°56'0 0.0
2018-May-15 16:28N 53°30' E 009°56'0 0.0
2018-May-15 15:58N 53°30' E 009°56'0 0.0
2018-May-15 15:28N 53°30' E 009°56'0 0.0
2018-May-15 14:58N 53°30' E 009°56'0 0.0
2018-May-15 14:28N 53°30' E 009°56'0 0.0
2018-May-15 13:58N 53°30' E 009°56'0 0.0
2018-May-15 13:28N 53°30' E 009°56'0 0.0
2018-May-15 13:00N 53°30' E 009°56'2 4.1
2018-May-15 12:31N 53°32' E 009°56'5 9.3
2018-May-15 12:01N 53°33' E 009°48'510.9
2018-May-15 11:30N 53°34' E 009°39'612.3
2018-May-15 11:00N 53°38' E 009°31'613.0
2018-May-15 10:30N 53°44' E 009°26'612.4
2018-May-15 10:00N 53°50' E 009°21'612.5
2018-May-15 09:30N 53°53' E 009°12'510.3
2018-May-15 09:00N 53°52' E 009°04'714.4
2018-May-15 08:30N 53°50' E 008°52'611.1
2018-May-15 08:00N 53°53' E 008°43'612.7
2018-May-15 07:30N 53°57' E 008°36'917.5
2018-May-15 07:01N 53°59' E 008°22'919.0
2018-May-15 06:30N 53°59' E 008°06'815.2
2018-May-15 06:00N 53°57' E 007°53'612.7
2018-May-15 05:30N 53°56' E 007°42'713.5
2018-May-15 05:00N 53°55' E 007°31'815.2
2018-May-15 04:28N 53°53' E 007°18'716.0
2018-May-15 04:01N 53°51' E 007°06'815.8
2018-May-15 03:30N 53°49' E 006°52'815.9
2018-May-15 03:00N 53°47' E 006°39'815.8
2018-May-15 02:29N 53°46' E 006°26'815.8
2018-May-15 02:00N 53°44' E 006°13'815.7
2018-May-15 01:30N 53°41' E 006°01'815.9
2018-May-15 01:00N 53°38' E 005°48'816.0
2018-May-15 00:31N 53°36' E 005°36'916.1
2018-May-14 23:57N 53°33' E 005°22'715.8
2018-May-14 23:31N 53°30' E 005°10'815.7
2018-May-14 23:01N 53°28' E 004°58'815.9
2018-May-14 22:31N 53°25' E 004°45'815.9
2018-May-14 22:01N 53°19' E 004°37'816.6
2018-May-14 21:31N 53°11' E 004°31'816.6
2018-May-14 21:00N 53°04' E 004°25'817.0
2018-May-14 20:31N 52°56' E 004°19'816.6
2018-May-14 20:01N 52°49' E 004°11'816.6
2018-May-14 19:30N 52°44' E 004°01'816.6
2018-May-14 19:00N 52°39' E 003°50'816.7
2018-May-14 18:30N 52°33' E 003°39'916.8
2018-May-14 17:58N 52°28' E 003°27'816.9
2018-May-14 17:29N 52°23' E 003°16'816.4
2018-May-14 17:00N 52°19' E 003°06'816.5
2018-May-14 16:30N 52°14' E 002°55'916.7
2018-May-14 15:56N 52°08' E 002°42'817.1
2018-May-14 15:26N 52°03' E 002°31'817.5
2018-May-14 15:00N 51°59' E 002°21'1017.8
2018-May-14 14:27N 51°53' E 002°08'818.0
2018-May-14 14:00N 51°50' E 001°57'816.8
2018-May-14 13:31N 51°50' E 001°43'510.8
2018-May-14 13:00N 51°50' E 001°34'816.7
2018-May-14 12:30N 51°43' E 001°29'918.2
2018-May-14 12:00N 51°36' E 001°18'1017.2
2018-May-14 11:26N 51°31' E 001°05'715.2
2018-May-14 11:00N 51°29' E 000°55'713.1
2018-May-14 10:29N 51°30' E 000°44'9 0.8
2018-May-13 22:38N 51°30' E 000°29'10 0.6
2018-May-13 07:42N 51°30' E 000°45'416.4
2018-May-13 07:28N 51°29' E 000°51'715.3
2018-May-13 07:00N 51°31' E 001°02'816.2
2018-May-13 06:30N 51°34' E 001°14'816.5
2018-May-13 06:00N 51°39' E 001°24'816.5
2018-May-13 05:30N 51°46' E 001°32'713.7
2018-May-13 05:00N 51°52' E 001°38'2 4.7
2018-May-13 04:30N 51°53' E 001°41'0 0.2
2018-May-13 03:58N 51°53' E 001°41'0 0.1
2018-May-13 03:28N 51°53' E 001°41'0 0.1
2018-May-13 02:58N 51°53' E 001°41'0 0.0
2018-May-13 02:28N 51°53' E 001°41'0 0.0
2018-May-13 01:58N 51°53' E 001°41'0 0.0
2018-May-13 01:28N 51°53' E 001°41'0 0.0
2018-May-13 00:58N 51°53' E 001°41'0 0.0
2018-May-13 00:28N 51°53' E 001°41'0 0.0
2018-May-12 23:58N 51°53' E 001°41'0 0.2
2018-May-12 23:28N 51°53' E 001°41'0 0.2
2018-May-12 22:58N 51°53' E 001°41'0 0.1
2018-May-12 22:28N 51°53' E 001°41'0 0.2
2018-May-12 21:58N 51°53' E 001°41'0 0.0
2018-May-12 21:28N 51°53' E 001°41'0 0.2
2018-May-12 20:58N 51°53' E 001°41'0 0.0
2018-May-12 20:28N 51°53' E 001°41'0 0.1
2018-May-12 19:58N 51°53' E 001°41'0 0.0
2018-May-12 19:28N 51°53' E 001°41'0 0.0
2018-May-12 18:58N 51°53' E 001°41'0 0.0
2018-May-12 18:28N 51°53' E 001°41'0 0.1
2018-May-12 17:58N 51°53' E 001°41'0 0.9
2018-May-12 17:30N 51°53' E 001°42'510.6
2018-May-12 17:00N 51°50' E 001°49'611.3
2018-May-12 16:30N 51°51' E 001°58'611.9
2018-May-12 16:00N 51°54' E 002°07'611.4
2018-May-12 15:30N 51°56' E 002°15'611.3
2018-May-12 14:56N 51°58' E 002°25'510.9
2018-May-12 14:30N 51°59' E 002°32'510.7
2018-May-12 14:00N 52°01' E 002°40'910.0
2018-May-12 13:04N 52°02' E 002°56'110.7
2018-May-12 13:00N 52°02' E 002°57'510.5
2018-May-12 12:30N 52°02' E 003°05'510.3
2018-May-12 12:00N 52°03' E 003°14'510.1
2018-May-12 11:30N 52°03' E 003°22'510.3
2018-May-12 10:59N 52°03' E 003°30'510.9
2018-May-12 10:30N 52°03' E 003°39'611.1
2018-May-12 10:00N 52°03' E 003°48'5 9.9
2018-May-12 09:30N 52°01' E 003°55'714.1
2018-May-12 09:01N 51°58' E 004°05'1 1.8
2018-May-12 08:29N 51°58' E 004°04'0 0.0
2018-May-12 07:59N 51°58' E 004°04'0 0.0
2018-May-12 07:29N 51°58' E 004°04'0 0.0
2018-May-12 06:59N 51°58' E 004°04'0 0.0
2018-May-12 06:29N 51°58' E 004°04'0 0.0
2018-May-12 05:59N 51°58' E 004°04'0 0.0
2018-May-12 05:29N 51°58' E 004°04'0 0.0
2018-May-12 04:59N 51°58' E 004°04'0 0.0
2018-May-12 04:29N 51°58' E 004°04'0 0.0
2018-May-12 03:59N 51°58' E 004°04'0 0.0
2018-May-12 03:29N 51°58' E 004°04'0 0.0
2018-May-12 02:59N 51°58' E 004°04'0 0.0
2018-May-12 02:29N 51°58' E 004°04'0 0.0
2018-May-12 01:59N 51°58' E 004°04'0 0.0
2018-May-12 01:29N 51°58' E 004°04'0 0.0
2018-May-12 00:59N 51°58' E 004°04'0 0.0
2018-May-12 00:29N 51°58' E 004°04'0 0.0
2018-May-11 23:59N 51°58' E 004°04'0 0.0
2018-May-11 23:29N 51°58' E 004°04'0 0.0
2018-May-11 22:59N 51°58' E 004°04'0 0.0
2018-May-11 22:29N 51°58' E 004°04'0 0.0
2018-May-11 21:59N 51°58' E 004°04'0 0.0
2018-May-11 21:29N 51°58' E 004°04'0 0.0
2018-May-11 20:59N 51°58' E 004°04'0 0.0
2018-May-11 20:28N 51°58' E 004°04'0 0.0
2018-May-11 19:59N 51°58' E 004°04'0 0.0
2018-May-11 19:29N 51°58' E 004°04'0 0.0
2018-May-11 18:59N 51°58' E 004°04'0 0.0
2018-May-11 18:28N 51°58' E 004°04'0 0.0
2018-May-11 17:59N 51°58' E 004°04'0 0.0
2018-May-11 17:28N 51°58' E 004°04'0 0.0
2018-May-11 16:59N 51°58' E 004°04'0 0.0
2018-May-11 16:28N 51°58' E 004°04'0 0.0
2018-May-11 15:58N 51°58' E 004°04'0 0.0
2018-May-11 15:29N 51°58' E 004°04'0 0.0
2018-May-11 14:58N 51°58' E 004°04'0 0.0
2018-May-11 14:28N 51°58' E 004°04'0 0.0
2018-May-11 13:58N 51°58' E 004°04'0 0.0
2018-May-11 13:28N 51°58' E 004°04'0 0.0
2018-May-11 12:58N 51°58' E 004°04'0 0.0
2018-May-11 12:28N 51°58' E 004°04'0 0.0
2018-May-11 11:58N 51°58' E 004°04'0 0.0
2018-May-11 11:28N 51°58' E 004°04'0 0.0
2018-May-11 10:58N 51°58' E 004°04'0 0.0
2018-May-11 10:29N 51°58' E 004°04'0 0.0
2018-May-11 09:58N 51°58' E 004°04'0 0.0
2018-May-11 09:29N 51°58' E 004°04'0 0.0
2018-May-11 08:58N 51°58' E 004°04'  

Dump ship's entire track history